Hovedside
METAR-TAF:

METAR-TAF

Lufthavner :

Auckland internasjonale lufthavn

Auckland, New Zealand

breddegrad: 37-01S, lengdegrad: 174-48E, høyde over havet: 7 m

Gjeldene værobservasjon

Denne rapporten ble laget for 23 minutter siden, klokken 05:00 UTC
Vind 4 kt fra Vest-sørvest
Temperatur 19°C
Luftfuktighet 60%
Trykk 1026 hPa
Sikt 10 km eller mer

METAR: NZAA 200500Z AUTO 24004KT 9999 SCT075/// 19/11 Q1026 NOSIG

Tid: 17:23 (05:23 UTC)

Varsel

Denne rapporten ble laget for 6 timer og 16 minutter siden, klokken 23:07 UTC
Varsel gyldig fra 20. klokken 00 UTC til 21. klokken 00 UTC
Vind 2 kt fra skiftende retning
Sikt 10 km eller mer
Få skyer i en høyde av 3500 ft
Fra 20. klokken 2200 UTC
Vind 10 kt fra Nord
Sikt 10 km eller mer
Få skyer i en høyde av 2500 ft
Spredte skyer i en høyde av 3500 ft

TAF: NZAA 192307Z 2000/2100 VRB02KT 9999 FEW035 FM202200 36010KT 9999 FEW025 SCT035

Værobservasjoner og værvarsel for over 4000 flyplasser (METAR- og TAF-rapporter).

Tilgjengelige stasjoner er representert av de røde og gule prikkene på kartet.

Hold musepekeren over prikken for å se navnet på stasjonen.

Klikk så for å se værobservasjoner og -varsler.

For å forandre kartet kan du klikke på den grønne knappen med svart kryss for å zoome inn, på den grønne knappen med strek for å zoome ut, eller på de grønne pilene for å se tilstøtende kart.


METAR-TAF: